Time;durP1;ratioP1;P1;durP2;ratioP2;P2;SDS_P1;SDS_P2;PMS_P1;PMS_P2;Temp;Humidity;BMP_temperature;BMP_pressure;BME280_temperature;BME280_humidity;BME280_pressure;Samples;Min_cycle;Max_cycle;Signal;HPM_P1;HPM_P2
2021/07/19 00:00:22;;;;;;;15.60;10.63;;;;;;;18.60;100.00;97641.81;5089889;28;20031;-82
2021/07/19 00:02:48;;;;;;;15.02;11.68;;;;;;;18.49;100.00;97643.44;5090296;28;20024;-81
2021/07/19 00:05:16;;;;;;;14.75;12.48;;;;;;;18.56;100.00;97652.81;5090436;28;20050;-80
2021/07/19 00:07:42;;;;;;;15.23;12.10;;;;;;;18.64;100.00;97662.09;5089121;28;20038;-83
2021/07/19 00:10:13;;;;;;;13.27;10.57;;;;;;;18.44;100.00;97657.56;5089276;28;20028;-81
2021/07/19 00:12:38;;;;;;;13.05;11.25;;;;;;;18.45;100.00;97661.97;5088779;28;20020;-81
2021/07/19 00:15:07;;;;;;;12.57;11.02;;;;;;;18.29;100.00;97658.34;5090313;28;20031;-80
2021/07/19 00:17:32;;;;;;;14.18;12.00;;;;;;;18.37;100.00;97655.41;5089984;28;20056;-82
2021/07/19 00:19:57;;;;;;;14.65;11.05;;;;;;;18.36;100.00;97659.31;5088668;28;20064;-81
2021/07/19 00:22:23;;;;;;;13.18;11.05;;;;;;;18.50;100.00;97661.72;5090312;28;20028;-81
2021/07/19 00:24:49;;;;;;;17.40;12.73;;;;;;;18.50;100.00;97661.72;5089126;28;20028;-81
2021/07/19 00:27:14;;;;;;;14.63;11.93;;;;;;;18.32;100.00;97652.91;5089813;28;20036;-81
2021/07/19 00:29:40;;;;;;;21.27;13.13;;;;;;;18.16;100.00;97647.31;5088782;28;20119;-80
2021/07/19 00:32:07;;;;;;;19.10;14.27;;;;;;;18.15;100.00;97661.50;5090290;28;20022;-82
2021/07/19 00:34:35;;;;;;;16.05;13.82;;;;;;;18.11;100.00;97650.31;5090036;28;20121;-83
2021/07/19 00:37:01;;;;;;;26.45;17.38;;;;;;;18.09;100.00;97660.94;5088842;28;21589;-79
2021/07/19 00:39:27;;;;;;;23.55;17.42;;;;;;;18.11;100.00;97644.78;5090361;28;20032;-79
2021/07/19 00:41:53;;;;;;;25.27;17.55;;;;;;;18.11;100.00;97653.09;5088809;28;20074;-80
2021/07/19 00:44:20;;;;;;;27.80;18.33;;;;;;;18.08;100.00;97655.75;5090439;28;20031;-77
2021/07/19 00:46:48;;;;;;;22.63;16.73;;;;;;;18.13;100.00;97645.25;5090311;28;20032;-78
2021/07/19 00:49:14;;;;;;;21.38;17.85;;;;;;;18.20;100.00;97634.34;5104415;28;20139;-79
2021/07/19 00:51:41;;;;;;;27.38;18.90;;;;;;;18.28;100.00;97634.56;5110225;28;20030;-80
2021/07/19 00:54:08;;;;;;;24.20;18.92;;;;;;;18.20;100.00;97633.53;5109145;28;20054;-77
2021/07/19 00:56:37;;;;;;;23.77;18.35;;;;;;;18.32;100.00;97643.78;5108611;28;20080;-79
2021/07/19 00:59:03;;;;;;;28.15;21.60;;;;;;;18.26;100.00;97642.44;5109362;28;20084;-79
2021/07/19 01:01:30;;;;;;;28.48;18.95;;;;;;;18.23;100.00;97634.84;5109229;28;20038;-80
2021/07/19 01:03:59;;;;;;;27.38;18.25;;;;;;;18.26;100.00;97634.13;5110615;28;20533;-79
2021/07/19 01:06:28;;;;;;;25.65;17.25;;;;;;;18.36;100.00;97637.16;5109108;28;20055;-79
2021/07/19 01:08:55;;;;;;;26.73;18.70;;;;;;;18.38;100.00;97645.13;5110426;28;20066;-79
2021/07/19 01:11:21;;;;;;;27.13;18.80;;;;;;;18.40;100.00;97646.38;5103251;28;20477;-80
2021/07/19 01:13:46;;;;;;;22.42;16.63;;;;;;;18.48;100.00;97639.88;5087798;28;20123;-81
2021/07/19 01:16:12;;;;;;;23.88;17.83;;;;;;;18.56;100.00;97632.59;5086212;28;20069;-80
2021/07/19 01:18:38;;;;;;;31.02;21.02;;;;;;;18.42;100.00;97637.75;5083912;28;20032;-78
2021/07/19 01:21:03;;;;;;;29.85;21.60;;;;;;;18.41;100.00;97631.38;5067881;28;20127;-80
2021/07/19 01:23:36;;;;;;;30.90;21.77;;;;;;;18.45;100.00;97620.41;5078097;28;20032;-77
2021/07/19 01:26:28;;;;;;;27.77;21.27;;;;;;;18.45;100.00;97637.03;5087467;28;20032;-78
2021/07/19 01:28:54;;;;;;;29.30;19.65;;;;;;;18.45;100.00;97632.28;5087064;28;20040;-80
2021/07/19 01:31:25;;;;;;;31.35;21.60;;;;;;;18.46;100.00;97631.13;5088295;28;20031;-78
2021/07/19 01:33:56;;;;;;;29.98;20.90;;;;;;;18.55;100.00;97625.44;5087935;28;20028;-79
2021/07/19 01:36:27;;;;;;;31.00;22.08;;;;;;;18.60;100.00;97627.97;5071663;28;20053;-78
2021/07/19 01:38:53;;;;;;;30.08;19.60;;;;;;;18.66;100.00;97627.34;5068110;28;20021;-80
2021/07/19 01:41:20;;;;;;;30.77;22.95;;;;;;;18.56;100.00;97635.38;5068170;28;20441;-78
2021/07/19 01:43:48;;;;;;;29.90;20.40;;;;;;;18.48;100.00;97636.31;5072399;28;20024;-77
2021/07/19 01:46:16;;;;;;;27.92;20.80;;;;;;;18.41;100.00;97613.97;5073019;28;20097;-77
2021/07/19 01:48:42;;;;;;;31.20;18.83;;;;;;;18.42;100.00;97616.38;5071711;28;20025;-79
2021/07/19 01:51:10;;;;;;;27.40;19.02;;;;;;;18.37;100.00;97632.44;5072786;28;20029;-78
2021/07/19 01:53:36;;;;;;;24.90;17.63;;;;;;;18.35;100.00;97643.88;5072168;28;20116;-82
2021/07/19 01:56:02;;;;;;;22.70;18.02;;;;;;;18.36;100.00;97633.59;5072688;28;20089;-80
2021/07/19 01:58:29;;;;;;;22.17;17.60;;;;;;;18.37;100.00;97624.94;5072620;28;20029;-83
2021/07/19 02:00:55;;;;;;;27.63;18.50;;;;;;;18.37;100.00;97637.97;5073425;28;20036;-83
2021/07/19 02:03:22;;;;;;;24.55;18.52;;;;;;;18.29;100.00;97631.47;5089590;28;20020;-83
2021/07/19 02:05:48;;;;;;;21.75;16.75;;;;;;;18.32;100.00;97632.72;5093352;28;20027;-84
2021/07/19 02:08:18;;;;;;;25.35;17.38;;;;;;;18.32;100.00;97650.13;5098291;28;20033;-80
2021/07/19 02:10:52;;;;;;;20.73;16.58;;;;;;;18.30;100.00;97641.34;5095004;28;20055;-79
2021/07/19 02:13:20;;;;;;;20.55;13.77;;;;;;;18.27;100.00;97633.75;5093698;28;20024;-83
2021/07/19 02:15:50;;;;;;;17.77;13.65;;;;;;;18.27;100.00;97635.72;5093387;28;20040;-82
2021/07/19 02:18:17;;;;;;;14.60;12.10;;;;;;;18.11;100.00;97622.63;5093350;28;20028;-82
2021/07/19 02:20:44;;;;;;;16.52;12.70;;;;;;;18.14;100.00;97619.16;5093895;28;20507;-80
2021/07/19 02:23:10;;;;;;;19.20;13.98;;;;;;;18.08;100.00;97612.25;5091511;28;20035;-81
2021/07/19 02:25:36;;;;;;;15.27;11.75;;;;;;;18.10;100.00;97623.81;5093234;28;20073;-85
2021/07/19 02:28:02;;;;;;;18.38;14.23;;;;;;;18.09;100.00;97618.59;5093181;28;20024;-85
2021/07/19 02:30:28;;;;;;;15.30;12.30;;;;;;;18.09;100.00;97602.81;5094252;28;20020;-85
2021/07/19 02:32:56;;;;;;;21.17;13.38;;;;;;;17.99;100.00;97589.47;5093494;28;20024;-84
2021/07/19 02:35:24;;;;;;;20.88;14.00;;;;;;;17.82;100.00;97602.81;5093696;28;20082;-83
2021/07/19 02:37:52;;;;;;;19.13;12.50;;;;;;;17.70;100.00;97611.94;5092602;28;20028;-83
2021/07/19 02:40:20;;;;;;;23.70;15.05;;;;;;;17.64;100.00;97624.41;5094156;28;20020;-86
2021/07/19 02:42:50;;;;;;;22.58;16.05;;;;;;;17.50;100.00;97623.94;5092023;28;20031;-83
2021/07/19 02:45:17;;;;;;;24.15;16.38;;;;;;;17.56;100.00;97614.28;5092490;28;20063;-81
2021/07/19 02:47:48;;;;;;;26.10;17.25;;;;;;;17.74;100.00;97606.50;5093764;28;20020;-87
2021/07/19 02:50:16;;;;;;;22.27;16.55;;;;;;;17.70;100.00;97617.47;5093862;28;20514;-86
2021/07/19 02:52:43;;;;;;;20.48;15.18;;;;;;;17.79;100.00;97614.56;5090927;28;20024;-80
2021/07/19 02:55:10;;;;;;;27.77;18.35;;;;;;;17.63;100.00;97631.09;5092403;28;20032;-79
2021/07/19 02:57:36;;;;;;;27.83;19.25;;;;;;;17.62;100.00;97633.06;5091089;28;20020;-80
2021/07/19 03:00:07;;;;;;;31.42;21.42;;;;;;;17.53;100.00;97628.78;5093021;28;20024;-85
2021/07/19 03:02:34;;;;;;;37.90;21.05;;;;;;;17.48;100.00;97629.81;5091859;28;20024;-85
2021/07/19 03:05:01;;;;;;;33.53;21.77;;;;;;;17.50;100.00;97623.94;5091077;28;20028;-82
2021/07/19 03:07:28;;;;;;;39.15;22.42;;;;;;;17.50;100.00;97616.47;5091946;28;20016;-82
2021/07/19 03:10:00;;;;;;;32.58;20.80;;;;;;;17.60;100.00;97623.50;5092564;28;20044;-82
2021/07/19 03:12:27;;;;;;;35.92;22.40;;;;;;;17.57;100.00;97622.22;5091358;28;20027;-83
2021/07/19 03:14:54;;;;;;;33.92;21.35;;;;;;;17.58;100.00;97612.78;5091121;28;20055;-82
2021/07/19 03:17:21;;;;;;;40.00;21.73;;;;;;;17.80;100.00;97622.50;5091361;28;20024;-82
2021/07/19 03:19:51;;;;;;;33.65;19.85;;;;;;;17.83;100.00;97629.31;5092184;28;20148;-81
2021/07/19 03:22:19;;;;;;;26.48;18.20;;;;;;;17.99;100.00;97630.19;5090775;28;20468;-78
2021/07/19 03:24:47;;;;;;;24.05;16.02;;;;;;;18.04;100.00;97622.41;5092699;28;20050;-81
2021/07/19 03:27:13;;;;;;;22.25;15.63;;;;;;;18.01;100.00;97625.91;5090688;28;20115;-82
2021/07/19 03:29:41;;;;;;;18.95;15.60;;;;;;;18.04;100.00;97616.88;5092434;28;20473;-83
2021/07/19 03:32:08;;;;;;;19.98;15.13;;;;;;;18.10;100.00;97623.00;5090637;28;20093;-82
2021/07/19 03:34:34;;;;;;;19.52;14.40;;;;;;;18.14;100.00;97615.56;5092218;28;20047;-81
2021/07/19 03:37:00;;;;;;;29.63;17.70;;;;;;;18.14;100.00;97615.56;5090663;28;20400;-82
2021/07/19 03:39:26;;;;;;;21.58;16.45;;;;;;;18.09;100.00;97619.41;5092071;28;20034;-82
2021/07/19 03:41:53;;;;;;;25.17;16.75;;;;;;;18.09;100.00;97610.31;5092118;28;20020;-82
2021/07/19 03:44:20;;;;;;;21.98;17.48;;;;;;;18.04;100.00;97600.28;5090735;28;20020;-82
2021/07/19 03:46:46;;;;;;;26.02;18.27;;;;;;;17.97;100.00;97608.41;5092270;28;20030;-81
2021/07/19 03:49:14;;;;;;;26.58;18.40;;;;;;;17.98;100.00;97621.06;5090580;28;20103;-82
2021/07/19 03:51:45;;;;;;;25.63;18.55;;;;;;;18.08;100.00;97623.34;5090507;28;20020;-82
2021/07/19 03:54:11;;;;;;;27.13;18.17;;;;;;;18.01;100.00;97612.06;5091008;28;20388;-83
2021/07/19 03:56:38;;;;;;;26.23;18.65;;;;;;;17.99;100.00;97602.50;5090275;28;20032;-83
2021/07/19 03:59:04;;;;;;;22.88;16.42;;;;;;;18.11;100.00;97611.56;5090466;28;20027;-82
2021/07/19 04:01:33;;;;;;;23.02;16.60;;;;;;;18.32;100.00;97610.56;5090151;28;20028;-82
2021/07/19 04:04:06;;;;;;;26.02;17.05;;;;;;;18.22;100.00;97613.81;5091632;28;20028;-85
2021/07/19 04:06:33;;;;;;;24.58;17.50;;;;;;;18.29;100.00;97623.16;5091179;28;20071;-81
2021/07/19 04:08:58;;;;;;;26.20;18.15;;;;;;;18.15;100.00;97612.47;5090034;28;20138;-84
2021/07/19 04:11:24;;;;;;;25.13;18.05;;;;;;;18.08;100.00;97615.03;5091732;28;20488;-84
2021/07/19 04:13:50;;;;;;;22.60;17.08;;;;;;;18.25;100.00;97615.88;5090395;28;20062;-83
2021/07/19 04:16:19;;;;;;;23.40;15.98;;;;;;;18.55;100.00;97619.91;5090073;28;20034;-82
2021/07/19 04:18:46;;;;;;;21.55;16.52;;;;;;;18.71;100.00;97618.75;5090943;28;20024;-83
2021/07/19 04:21:12;;;;;;;20.52;15.15;;;;;;;18.46;100.00;97608.97;5091954;28;20039;-82
2021/07/19 04:23:38;;;;;;;21.85;17.20;;;;;;;18.53;100.00;97611.16;5093292;28;20012;-82
2021/07/19 04:26:04;;;;;;;22.02;15.45;;;;;;;18.59;100.00;97612.50;5092695;28;20045;-85
2021/07/19 04:28:29;;;;;;;21.50;15.10;;;;;;;18.50;100.00;97614.63;5079273;28;20028;-81
2021/07/19 04:30:57;;;;;;;24.60;16.67;;;;;;;18.39;100.00;97608.75;5093829;28;20423;-83
2021/07/19 04:33:23;;;;;;;22.75;16.38;;;;;;;18.43;100.00;97606.09;5081984;28;20036;-79
2021/07/19 04:35:49;;;;;;;21.80;16.83;;;;;;;18.30;100.00;97618.38;5069381;28;20045;-81
2021/07/19 04:38:16;;;;;;;25.25;15.40;;;;;;;18.30;100.00;97621.97;5070550;28;20064;-81
2021/07/19 04:40:45;;;;;;;19.77;13.75;;;;;;;18.13;100.00;97623.09;5069418;28;20398;-81
2021/07/19 04:43:11;;;;;;;19.13;14.50;;;;;;;18.13;100.00;97627.84;5069264;28;20036;-82
2021/07/19 04:45:36;;;;;;;21.27;14.52;;;;;;;18.23;100.00;97637.59;5078537;28;20020;-82
2021/07/19 04:48:02;;;;;;;27.05;17.90;;;;;;;18.22;100.00;97628.47;5090763;28;20043;-81
2021/07/19 04:50:27;;;;;;;29.25;18.52;;;;;;;18.11;100.00;97627.34;5089721;28;20389;-81
2021/07/19 04:52:56;;;;;;;25.50;19.00;;;;;;;18.00;100.00;97624.31;5088489;28;20067;-84
2021/07/19 04:55:23;;;;;;;23.42;16.60;;;;;;;18.18;100.00;97628.38;5090585;28;20039;-85
2021/07/19 04:57:53;;;;;;;23.10;17.58;;;;;;;18.19;100.00;97621.69;5089113;28;20067;-81
2021/07/19 05:00:20;;;;;;;23.85;16.38;;;;;;;18.25;100.00;97629.72;5088347;28;20020;-80
2021/07/19 05:02:50;;;;;;;23.10;16.05;;;;;;;18.16;100.00;97625.16;5088665;28;20035;-85
2021/07/19 05:05:19;;;;;;;26.80;16.70;;;;;;;18.27;100.00;97635.72;5090556;28;20084;-82
2021/07/19 05:07:48;;;;;;;19.52;13.00;;;;;;;18.40;100.00;97632.53;5090469;28;20369;-83
2021/07/19 05:10:19;;;;;;;20.05;14.23;;;;;;;18.58;100.00;97633.84;5089071;28;20024;-83
2021/07/19 05:12:51;;;;;;;21.38;14.43;;;;;;;18.80;100.00;97635.22;5088696;28;20032;-82
2021/07/19 05:15:17;;;;;;;15.20;11.90;;;;;;;19.38;100.00;97635.47;5088991;28;20392;-84
2021/07/19 05:17:43;;;;;;;17.63;13.15;;;;;;;19.64;100.00;97630.94;5092330;28;20098;-82
2021/07/19 05:20:18;;;;;;;16.73;11.50;;;;;;;20.04;100.00;97640.94;5094679;28;20125;-84
2021/07/19 05:22:54;;;;;;;13.18;11.25;;;;;;;20.40;100.00;97636.94;5079249;28;20025;-85
2021/07/19 05:25:30;;;;;;;15.25;11.27;;;;;;;20.44;100.00;97632.25;5077307;28;20056;-84
2021/07/19 05:27:58;;;;;;;10.50;9.20;;;;;;;20.20;100.00;97628.56;5084057;28;20035;-84
2021/07/19 05:30:28;;;;;;;8.98;7.88;;;;;;;20.08;100.00;97647.38;5075592;28;20025;-82
2021/07/19 05:32:54;;;;;;;9.30;8.25;;;;;;;19.89;100.00;97644.59;5078274;28;20048;-88
2021/07/19 05:35:20;;;;;;;12.38;9.77;;;;;;;19.71;100.00;97644.19;5078455;28;20056;-84
2021/07/19 05:37:46;;;;;;;10.27;7.60;;;;;;;19.88;100.00;97649.34;5093899;28;20055;-86
2021/07/19 05:40:13;;;;;;;9.27;7.68;;;;;;;20.12;100.00;97654.59;5095778;28;20028;-88
2021/07/19 05:42:39;;;;;;;9.93;8.93;;;;;;;20.01;100.00;97659.16;5094087;28;20077;-82
2021/07/19 05:45:06;;;;;;;13.63;9.02;;;;;;;19.89;100.00;97650.16;5093932;28;20146;-79
2021/07/19 05:47:32;;;;;;;10.50;8.73;;;;;;;19.95;100.00;97660.59;5092215;28;20028;-88
2021/07/19 05:49:58;;;;;;;10.40;9.30;;;;;;;20.14;100.00;97663.38;5092147;28;20081;-80
2021/07/19 05:52:23;;;;;;;12.20;8.15;;;;;;;19.89;100.00;97659.25;5097525;28;20028;-82
2021/07/19 05:54:48;;;;;;;10.90;8.60;;;;;;;19.94;100.00;97659.00;5093652;28;20495;-80
2021/07/19 05:57:14;;;;;;;9.45;8.07;;;;;;;19.98;100.00;97665.44;5092140;28;20503;-78
2021/07/19 05:59:39;;;;;;;9.38;8.38;;;;;;;20.14;100.00;97668.94;5093777;28;20035;-78
2021/07/19 06:02:04;;;;;;;13.55;9.30;;;;;;;20.47;100.00;97662.09;5092018;28;20034;-77
2021/07/19 06:04:30;;;;;;;10.10;8.27;;;;;;;20.50;100.00;97664.94;5091430;28;20103;-80
2021/07/19 06:06:55;;;;;;;8.88;7.93;;;;;;;20.56;100.00;97659.88;5074251;28;20029;-83
2021/07/19 06:09:20;;;;;;;8.77;7.75;;;;;;;20.55;100.00;97663.84;5071715;28;20025;-83
2021/07/19 06:11:46;;;;;;;9.10;7.18;;;;;;;20.36;100.00;97669.41;5073875;28;20504;-84
2021/07/19 06:14:11;;;;;;;11.98;7.68;;;;;;;20.33;100.00;97664.59;5075042;28;20030;-85
2021/07/19 06:16:38;;;;;;;7.88;6.97;;;;;;;20.43;100.00;97669.53;5072608;28;20944;-80
2021/07/19 06:19:04;;;;;;;7.80;6.38;;;;;;;20.44;100.00;97673.94;5072998;28;20029;-77
2021/07/19 06:21:29;;;;;;;18.15;8.32;;;;;;;20.48;100.00;97664.50;5071291;28;20028;-78
2021/07/19 06:23:55;;;;;;;8.35;7.40;;;;;;;20.65;100.00;97672.38;5085507;28;20032;-77
2021/07/19 06:26:20;;;;;;;9.52;6.70;;;;;;;20.98;99.34;97673.78;5091394;28;20420;-77
2021/07/19 06:28:46;;;;;;;9.32;7.22;;;;;;;21.13;96.80;97681.22;5091283;28;20052;-78
2021/07/19 06:31:11;;;;;;;8.73;7.28;;;;;;;21.10;95.13;97681.97;5091070;28;20073;-77
2021/07/19 06:33:37;;;;;;;12.90;7.78;;;;;;;21.19;95.83;97674.19;5089933;28;20093;-76
2021/07/19 06:36:03;;;;;;;7.75;6.45;;;;;;;21.44;93.22;97680.16;5091542;28;20052;-75
2021/07/19 06:38:28;;;;;;;9.13;6.50;;;;;;;21.34;94.28;97685.19;5093669;28;20065;-76
2021/07/19 06:40:54;;;;;;;8.27;5.57;;;;;;;21.39;93.68;97683.25;5093545;28;20031;-78
2021/07/19 06:43:19;;;;;;;7.80;5.90;;;;;;;20.91;95.39;97685.59;5090504;28;20020;-78
2021/07/19 06:45:47;;;;;;;8.10;5.88;;;;;;;21.21;94.49;97674.59;5090575;28;20061;-76
2021/07/19 06:48:13;;;;;;;7.50;6.28;;;;;;;21.71;91.97;97690.94;5092350;28;20030;-75
2021/07/19 06:50:38;;;;;;;10.10;6.78;;;;;;;21.80;90.84;97687.91;5091817;28;20038;-75
2021/07/19 06:53:04;;;;;;;12.13;6.75;;;;;;;21.84;89.64;97694.31;5112227;28;20103;-86
2021/07/19 06:55:29;;;;;;;7.57;5.13;;;;;;;22.21;87.16;97691.69;5112723;28;20035;-83
2021/07/19 06:57:55;;;;;;;7.75;6.63;;;;;;;22.42;88.76;97695.56;5113815;28;20051;-83
2021/07/19 07:00:21;;;;;;;12.30;8.05;;;;;;;22.08;88.70;97693.91;5112234;28;20016;-84
2021/07/19 07:02:46;;;;;;;7.72;6.45;;;;;;;21.94;90.35;97704.84;5100445;28;20028;-84
2021/07/19 07:05:12;;;;;;;7.35;5.80;;;;;;;22.26;89.96;97691.34;5089213;28;20061;-83
2021/07/19 07:07:37;;;;;;;9.05;5.07;;;;;;;22.76;87.19;97706.75;5092563;28;20127;-84
2021/07/19 07:10:04;;;;;;;5.15;4.45;;;;;;;22.88;86.07;97703.69;5092188;28;20028;-82
2021/07/19 07:12:29;;;;;;;5.78;4.97;;;;;;;22.72;86.39;97689.16;5089093;28;20012;-84
2021/07/19 07:14:55;;;;;;;11.43;5.28;;;;;;;22.60;86.75;97689.38;5091167;28;20046;-83
2021/07/19 07:17:20;;;;;;;5.78;5.13;;;;;;;22.79;84.87;97694.81;5090794;28;20598;-84
2021/07/19 07:19:46;;;;;;;6.72;5.10;;;;;;;22.61;86.31;97683.44;5091553;28;20057;-82
2021/07/19 07:22:15;;;;;;;7.28;4.68;;;;;;;22.73;85.54;97691.56;5090544;28;20066;-82
2021/07/19 07:24:41;;;;;;;20.20;6.45;;;;;;;22.69;85.08;97701.06;5091551;28;20381;-83
2021/07/19 07:27:10;;;;;;;6.60;5.57;;;;;;;22.55;85.00;97690.53;5092660;28;20032;-81
2021/07/19 07:29:37;;;;;;;7.10;5.07;;;;;;;23.08;83.21;97688.34;5090932;28;20530;-80
2021/07/19 07:32:04;;;;;;;7.90;5.30;;;;;;;23.11;82.73;97690.38;5090542;28;20034;-79
2021/07/19 07:34:29;;;;;;;9.00;4.72;;;;;;;23.17;83.16;97683.25;5091935;28;20039;-80
2021/07/19 07:36:54;;;;;;;7.35;5.72;;;;;;;22.90;84.42;97690.13;5091302;28;20053;-80
2021/07/19 07:39:20;;;;;;;7.20;4.70;;;;;;;22.68;85.65;97679.97;5091547;28;20027;-79
2021/07/19 07:41:46;;;;;;;6.05;4.18;;;;;;;23.27;84.51;97690.13;5089778;28;20086;-79
2021/07/19 07:44:11;;;;;;;5.18;4.68;;;;;;;23.57;81.73;97685.22;5090784;28;20034;-78
2021/07/19 07:46:37;;;;;;;4.70;4.18;;;;;;;24.09;79.53;97678.38;5091350;28;20044;-78
2021/07/19 07:49:03;;;;;;;3.80;3.40;;;;;;;24.57;78.16;97684.63;5089875;28;20036;-78
2021/07/19 07:51:28;;;;;;;8.02;5.15;;;;;;;24.83;75.78;97677.97;5089936;28;20500;-79
2021/07/19 07:53:54;;;;;;;4.57;3.40;;;;;;;25.49;73.95;97693.28;5088613;28;20036;-79
2021/07/19 07:56:19;;;;;;;5.85;3.35;;;;;;;25.54;71.46;97684.47;5089378;28;20114;-79
2021/07/19 07:58:45;;;;;;;4.63;3.45;;;;;;;25.71;72.21;97683.69;5090476;28;20020;-79
2021/07/19 08:01:10;;;;;;;4.53;3.60;;;;;;;25.80;71.16;97688.88;5088462;28;20097;-80
2021/07/19 08:03:36;;;;;;;5.65;3.83;;;;;;;25.66;70.96;97686.06;5087678;28;20501;-80
2021/07/19 08:06:01;;;;;;;3.25;2.45;;;;;;;26.03;69.23;97683.63;5089789;28;20036;-80
2021/07/19 08:08:27;;;;;;;3.08;2.67;;;;;;;26.88;66.27;97686.16;5088165;28;20477;-79
2021/07/19 08:10:52;;;;;;;8.15;3.72;;;;;;;26.72;68.02;97686.59;5088685;28;20142;-81
2021/07/19 08:13:18;;;;;;;5.72;2.88;;;;;;;26.83;67.16;97680.97;5090049;28;20008;-80
2021/07/19 08:15:47;;;;;;;3.58;2.63;;;;;;;27.34;66.99;97683.88;5090101;28;20032;-79
2021/07/19 08:18:13;;;;;;;3.38;2.95;;;;;;;28.10;62.41;97686.44;5089675;28;20028;-80
2021/07/19 08:20:38;;;;;;;8.25;4.53;;;;;;;28.58;59.62;97683.50;5088557;28;21833;-79
2021/07/19 08:23:04;;;;;;;4.22;3.05;;;;;;;28.96;57.49;97694.72;5085747;28;20374;-79
2021/07/19 08:25:29;;;;;;;2.60;2.40;;;;;;;29.55;55.78;97698.69;5087551;28;20035;-78
2021/07/19 08:27:55;;;;;;;3.42;3.13;;;;;;;29.67;54.20;97692.44;5088511;28;20024;-77
2021/07/19 08:30:21;;;;;;;3.75;2.45;;;;;;;30.16;51.64;97685.16;5088907;28;20050;-80
2021/07/19 08:32:46;;;;;;;10.20;3.78;;;;;;;29.19;52.99;97691.97;5089629;28;20016;-77
2021/07/19 08:35:13;;;;;;;7.10;3.05;;;;;;;29.99;48.79;97691.13;5087762;28;20055;-78
2021/07/19 08:37:44;;;;;;;3.65;2.90;;;;;;;29.62;47.67;97695.75;5087883;28;20027;-76
2021/07/19 08:40:10;;;;;;;5.93;2.95;;;;;;;31.16;44.62;97681.94;5086712;28;20459;-78
2021/07/19 08:42:38;;;;;;;5.88;3.15;;;;;;;31.28;43.97;97680.44;5087988;28;20036;-76
2021/07/19 08:45:05;;;;;;;4.78;3.20;;;;;;;29.82;47.46;97678.09;5088220;28;20155;-78
2021/07/19 08:47:42;;;;;;;3.60;3.15;;;;;;;29.57;48.31;97687.75;5087751;28;20020;-78
2021/07/19 08:50:13;;;;;;;5.40;3.10;;;;;;;29.70;48.10;97688.75;5088848;28;20024;-76
2021/07/19 08:52:40;;;;;;;7.78;3.80;;;;;;;28.07;49.00;97680.84;5090681;28;20139;-75
2021/07/19 08:55:09;;;;;;;8.93;4.47;;;;;;;28.68;48.28;97676.97;5092647;28;20032;-76
2021/07/19 08:57:34;;;;;;;8.55;4.13;;;;;;;27.85;51.13;97679.47;5093928;28;20020;-77
2021/07/19 09:00:06;;;;;;;4.18;3.75;;;;;;;28.30;50.53;97678.22;5091720;28;20023;-79
2021/07/19 09:02:32;;;;;;;6.15;3.50;;;;;;;28.77;47.83;97670.81;5092305;28;20024;-76
2021/07/19 09:04:59;;;;;;;8.40;4.47;;;;;;;28.99;48.14;97676.97;5092126;28;20077;-78
2021/07/19 09:07:24;;;;;;;6.95;4.18;;;;;;;29.00;47.36;97679.38;5091508;28;20466;-78
2021/07/19 09:09:52;;;;;;;5.05;4.22;;;;;;;28.32;44.70;97672.19;5092149;28;20130;-76
2021/07/19 09:12:28;;;;;;;8.70;4.15;;;;;;;27.86;46.46;97675.41;5091899;28;20020;-78
2021/07/19 09:14:53;;;;;;;9.60;4.30;;;;;;;27.31;47.96;97665.03;5089010;28;20028;-77
2021/07/19 09:17:24;;;;;;;9.00;5.20;;;;;;;27.26;45.07;97668.25;5091064;28;21542;-76
2021/07/19 09:19:49;;;;;;;9.88;4.70;;;;;;;27.41;45.66;97683.03;5090044;28;20508;-75
2021/07/19 09:22:32;;;;;;;7.97;4.85;;;;;;;27.70;45.20;97680.78;5090864;28;20036;-77
2021/07/19 09:25:17;;;;;;;9.07;5.20;;;;;;;27.84;45.75;97677.88;5092182;28;20032;-78
2021/07/19 09:28:08;;;;;;;7.20;4.35;;;;;;;28.01;44.41;97671.25;5089686;28;20020;-77
2021/07/19 09:30:38;;;;;;;8.32;4.82;;;;;;;27.39;44.00;97663.75;5088520;28;20039;-77
2021/07/19 09:33:13;;;;;;;7.75;4.95;;;;;;;28.18;43.50;97681.56;5089517;28;22121;-77
2021/07/19 09:35:45;;;;;;;5.88;4.43;;;;;;;27.89;44.31;97674.59;5091128;28;20450;-80
2021/07/19 09:38:16;;;;;;;15.32;4.68;;;;;;;28.33;42.75;97671.75;5121786;27;20503;-78
2021/07/19 09:40:46;;;;;;;8.05;5.32;;;;;;;28.53;43.01;97674.72;5090066;28;20024;-80
2021/07/19 09:43:26;;;;;;;7.95;4.53;;;;;;;29.02;42.94;97667.66;5089846;28;20115;-79
2021/07/19 09:46:13;;;;;;;12.63;5.18;;;;;;;28.33;41.11;97666.13;5089826;28;20058;-79
2021/07/19 09:48:39;;;;;;;7.63;5.05;;;;;;;28.14;41.97;97653.47;5086759;28;20575;-80
2021/07/19 09:51:04;;;;;;;9.77;4.88;;;;;;;28.02;43.30;97658.78;5090506;28;20172;-77
2021/07/19 09:53:34;;;;;;;12.40;4.95;;;;;;;27.86;42.24;97664.16;5090874;28;20396;-79
2021/07/19 09:56:20;;;;;;;9.60;5.03;;;;;;;27.91;42.37;97660.94;5092318;28;20115;-77
2021/07/19 09:58:47;;;;;;;;;;;;;;;28.35;41.65;97658.03;5091526;28;20039;-78
2021/07/19 10:01:31;;;;;;;8.00;4.93;;;;;;;27.95;43.66;97661.66;5089398;28;19946;-80
2021/07/19 10:04:05;;;;;;;8.80;4.60;;;;;;;28.25;42.59;97656.16;5088994;28;20024;-83
2021/07/19 10:06:31;;;;;;;9.35;5.63;;;;;;;28.25;42.70;97655.38;5092011;28;20043;-84
2021/07/19 10:08:57;;;;;;;9.95;5.28;;;;;;;28.20;43.18;97650.97;5091824;28;20032;-81
2021/07/19 10:11:23;;;;;;;10.82;5.35;;;;;;;28.15;43.33;97654.25;5092201;28;20365;-82
2021/07/19 10:13:49;;;;;;;9.20;5.82;;;;;;;28.10;43.34;97646.25;5090972;28;20481;-80
2021/07/19 10:16:16;;;;;;;9.00;4.63;;;;;;;28.19;43.65;97655.03;5090496;28;20031;-81
2021/07/19 10:18:46;;;;;;;5.90;4.63;;;;;;;28.77;43.19;97653.13;5090097;28;20039;-82
2021/07/19 10:21:12;;;;;;;5.70;4.60;;;;;;;28.86;41.38;97650.56;5090605;28;20032;-81
2021/07/19 10:23:39;;;;;;;9.23;5.53;;;;;;;28.63;41.45;97651.28;5092543;28;20784;-81
2021/07/19 10:26:05;;;;;;;7.18;4.78;;;;;;;28.78;41.29;97651.91;5090678;28;20024;-82
2021/07/19 10:28:31;;;;;;;9.23;4.80;;;;;;;28.46;42.25;97647.47;5090812;28;20051;-80
2021/07/19 10:30:58;;;;;;;8.95;4.65;;;;;;;28.41;41.62;97642.28;5089950;28;20959;-81
2021/07/19 10:33:23;;;;;;;8.38;4.57;;;;;;;28.66;41.97;97639.97;5089848;28;20066;-82
2021/07/19 10:35:51;;;;;;;9.43;5.38;;;;;;;28.41;42.96;97650.72;5091219;28;20581;-83
2021/07/19 10:38:26;;;;;;;12.55;6.03;;;;;;;28.17;43.10;97640.56;5091507;28;20048;-86
2021/07/19 10:40:56;;;;;;;9.17;5.67;;;;;;;28.36;43.62;97639.94;5091048;28;20480;-83
2021/07/19 10:43:24;;;;;;;11.40;5.65;;;;;;;28.48;43.69;97642.19;5090135;28;20055;-83
2021/07/19 10:45:53;;;;;;;7.20;5.05;;;;;;;28.24;43.47;97640.50;5092040;28;20012;-81
2021/07/19 10:48:27;;;;;;;11.38;5.72;;;;;;;28.17;43.29;97641.38;5090825;28;20050;-82
2021/07/19 10:50:54;;;;;;;10.70;5.18;;;;;;;28.06;42.63;97625.84;5091613;28;20023;-83
2021/07/19 10:53:26;;;;;;;8.13;5.00;;;;;;;28.53;43.04;97636.13;5090507;28;20444;-78
2021/07/19 10:56:07;;;;;;;11.60;5.70;;;;;;;28.13;43.25;97629.34;5092015;28;20443;-84
2021/07/19 10:58:42;;;;;;;8.13;5.43;;;;;;;28.17;44.10;97635.75;5092623;28;20034;-83
2021/07/19 11:01:29;;;;;;;7.88;5.00;;;;;;;28.55;43.53;97618.78;5091403;28;20059;-78
2021/07/19 11:04:00;;;;;;;10.07;6.30;;;;;;;28.77;42.45;97620.13;5087837;28;20696;-75
2021/07/19 11:06:34;;;;;;;15.50;6.40;;;;;;;28.62;42.70;97624.34;5090617;28;20016;-78
2021/07/19 11:09:02;;;;;;;7.25;5.05;;;;;;;29.00;41.63;97625.03;5090672;28;20027;-76
2021/07/19 11:11:30;;;;;;;9.63;4.80;;;;;;;28.90;41.07;97618.34;5093797;28;20019;-74
2021/07/19 11:14:07;;;;;;;10.82;5.60;;;;;;;28.51;42.41;97616.03;5104208;28;20028;-80
2021/07/19 11:16:53;;;;;;;13.23;6.65;;;;;;;28.64;42.95;97613.44;5092323;28;20032;-84
2021/07/19 11:19:36;;;;;;;8.93;5.78;;;;;;;29.14;41.01;97608.69;5091457;28;20027;-79
2021/07/19 11:22:23;;;;;;;14.77;6.28;;;;;;;29.29;40.54;97603.66;5090124;28;20028;-79